Time;durP1;ratioP1;P1;durP2;ratioP2;P2;SDS_P1;SDS_P2;PMS_P1;PMS_P2;Temp;Humidity;BMP_temperature;BMP_pressure;BME280_temperature;BME280_humidity;BME280_pressure;Samples;Min_cycle;Max_cycle;Signal;HPM_P1;HPM_P2
2024/04/07 00:02:11;;;;;;;137.70;130.82;;;;;;;;;;5031113;28;20049;-53
2024/04/07 00:04:37;;;;;;;140.48;133.45;;;;;;;;;;5032214;28;20876;-60
2024/04/07 00:07:03;;;;;;;142.73;135.50;;;;;;;;;;5031446;28;20030;-55
2024/04/07 00:09:28;;;;;;;135.95;129.05;;;;;;;;;;5033342;28;20506;-60
2024/04/07 00:11:54;;;;;;;139.98;132.85;;;;;;;;;;5030833;28;20054;-59
2024/04/07 00:14:30;;;;;;;139.15;132.13;;;;;;;;;;5031347;28;20033;-55
2024/04/07 00:16:55;;;;;;;126.32;119.97;;;;;;;;;;5033957;28;20037;-54
2024/04/07 00:19:23;;;;;;;126.15;119.78;;;;;;;;;;5035979;28;20122;-59
2024/04/07 00:21:49;;;;;;;130.70;124.05;;;;;;;;;;5032174;28;20036;-55
2024/04/07 00:24:14;;;;;;;129.18;122.70;;;;;;;;;;5035256;28;20426;-55
2024/04/07 00:26:39;;;;;;;124.60;118.32;;;;;;;;;;5032548;28;20829;-55
2024/04/07 00:29:05;;;;;;;136.18;129.25;;;;;;;;;;5031391;28;20985;-59
2024/04/07 00:31:30;;;;;;;120.25;114.25;;;;;;;;;;5031590;28;20033;-55
2024/04/07 00:33:55;;;;;;;118.25;112.40;;;;;;;;;;5032692;28;20037;-59
2024/04/07 00:36:21;;;;;;;122.22;116.07;;;;;;;;;;5033795;28;20036;-54
2024/04/07 00:38:47;;;;;;;120.32;114.32;;;;;;;;;;5032635;28;20537;-54
2024/04/07 00:41:13;;;;;;;120.82;114.78;;;;;;;;;;5030785;28;20029;-54
2024/04/07 00:43:40;;;;;;;116.88;110.95;;;;;;;;;;5031478;28;20466;-59
2024/04/07 00:46:05;;;;;;;126.97;120.55;;;;;;;;;;5034859;28;20109;-54
2024/04/07 00:48:32;;;;;;;124.25;118.00;;;;;;;;;;5031823;28;20123;-59
2024/04/07 00:50:59;;;;;;;126.43;120.13;;;;;;;;;;5031684;28;20037;-56
2024/04/07 00:53:26;;;;;;;115.70;109.82;;;;;;;;;;5034915;28;20044;-59
2024/04/07 00:55:51;;;;;;;108.40;102.93;;;;;;;;;;5034531;28;20041;-56
2024/04/07 00:58:18;;;;;;;94.13;89.45;;;;;;;;;;5033080;28;20025;-54
2024/04/07 01:00:44;;;;;;;77.07;73.15;;;;;;;;;;5028557;28;20044;-53
2024/04/07 01:03:11;;;;;;;89.32;84.57;;;;;;;;;;5025595;28;20113;-56
2024/04/07 01:05:41;;;;;;;126.75;120.30;;;;;;;;;;5029179;28;20060;-59
2024/04/07 01:08:08;;;;;;;162.85;154.73;;;;;;;;;;5032830;28;20044;-49
2024/04/07 01:10:34;;;;;;;152.90;144.98;;;;;;;;;;5032207;28;20078;-59
2024/04/07 01:13:00;;;;;;;163.15;154.95;;;;;;;;;;5033521;28;20771;-58
2024/04/07 01:15:25;;;;;;;166.07;157.63;;;;;;;;;;5029641;28;20620;-59
2024/04/07 01:17:51;;;;;;;162.85;154.68;;;;;;;;;;5031802;28;20033;-59
2024/04/07 01:20:17;;;;;;;163.10;155.05;;;;;;;;;;5032882;28;20044;-59
2024/04/07 01:22:42;;;;;;;151.82;144.25;;;;;;;;;;5030984;28;22007;-59
2024/04/07 01:25:08;;;;;;;135.18;128.43;;;;;;;;;;5034749;28;20025;-59
2024/04/07 01:27:33;;;;;;;133.75;127.07;;;;;;;;;;5033707;28;20033;-59
2024/04/07 01:29:58;;;;;;;122.20;116.13;;;;;;;;;;5033971;28;20037;-59
2024/04/07 01:32:24;;;;;;;116.43;110.68;;;;;;;;;;5030801;28;20041;-59
2024/04/07 01:34:49;;;;;;;100.65;95.55;;;;;;;;;;5030749;28;20029;-59
2024/04/07 01:37:15;;;;;;;75.80;71.95;;;;;;;;;;5032429;28;20589;-59
2024/04/07 01:39:40;;;;;;;73.03;69.38;;;;;;;;;;5030074;28;20029;-59
2024/04/07 01:42:05;;;;;;;76.32;72.47;;;;;;;;;;5032627;28;20041;-59
2024/04/07 01:44:31;;;;;;;60.17;57.10;;;;;;;;;;5029732;28;20131;-59
2024/04/07 01:46:56;;;;;;;58.45;55.42;;;;;;;;;;5031392;28;20442;-59
2024/04/07 01:49:21;;;;;;;60.40;57.33;;;;;;;;;;5031473;28;20028;-59
2024/04/07 01:51:47;;;;;;;61.95;58.72;;;;;;;;;;5029464;28;20557;-59
2024/04/07 01:54:12;;;;;;;61.15;57.95;;;;;;;;;;5030718;28;20060;-59
2024/04/07 01:56:37;;;;;;;62.97;59.67;;;;;;;;;;5032974;28;20095;-59
2024/04/07 01:59:03;;;;;;;57.80;54.70;;;;;;;;;;5028290;28;20103;-59
2024/04/07 02:01:29;;;;;;;58.42;55.47;;;;;;;;;;5032327;28;20037;-59
2024/04/07 02:03:54;;;;;;;57.80;54.85;;;;;;;;;;5032661;28;20063;-59
2024/04/07 02:06:20;;;;;;;64.03;60.80;;;;;;;;;;5030843;28;20045;-59
2024/04/07 02:08:45;;;;;;;58.17;55.15;;;;;;;;;;5029849;28;20657;-60
2024/04/07 02:11:10;;;;;;;55.55;52.63;;;;;;;;;;5034373;28;20041;-59
2024/04/07 02:13:35;;;;;;;55.88;53.00;;;;;;;;;;5029333;28;20036;-59
2024/04/07 02:16:02;;;;;;;62.30;59.10;;;;;;;;;;5030657;28;20041;-59
2024/04/07 02:18:27;;;;;;;65.72;62.33;;;;;;;;;;5030540;28;20101;-59
2024/04/07 02:20:53;;;;;;;62.28;59.10;;;;;;;;;;5028180;28;20381;-60
2024/04/07 02:23:19;;;;;;;83.32;79.10;;;;;;;;;;5033387;28;20056;-59
2024/04/07 02:25:46;;;;;;;90.43;85.88;;;;;;;;;;5030340;28;20106;-59
2024/04/07 02:28:12;;;;;;;98.03;92.88;;;;;;;;;;5030909;28;20679;-59
2024/04/07 02:30:37;;;;;;;79.60;75.30;;;;;;;;;;5029607;28;20037;-59
2024/04/07 02:33:04;;;;;;;80.18;76.15;;;;;;;;;;5029917;28;20033;-59
2024/04/07 02:35:31;;;;;;;71.95;68.35;;;;;;;;;;5031805;28;20067;-59
2024/04/07 02:37:57;;;;;;;59.60;56.55;;;;;;;;;;5027372;28;20029;-59
2024/04/07 02:40:22;;;;;;;60.92;57.70;;;;;;;;;;5029793;28;20732;-59
2024/04/07 02:42:48;;;;;;;56.90;53.97;;;;;;;;;;5032535;28;20503;-60
2024/04/07 02:48:04;;;;;;;52.90;50.20;;;;;;;;;;5032010;28;20033;-59
2024/04/07 02:50:33;;;;;;;59.45;56.15;;;;;;;;;;5029325;28;20029;-59
2024/04/07 02:52:58;;;;;;;56.92;53.92;;;;;;;;;;5029704;28;20064;-59
2024/04/07 02:55:24;;;;;;;54.40;51.63;;;;;;;;;;5030394;28;20117;-59
2024/04/07 02:57:49;;;;;;;49.60;46.88;;;;;;;;;;5031594;28;20782;-60
2024/04/07 03:00:15;;;;;;;47.65;45.20;;;;;;;;;;5029347;28;20096;-59
2024/04/07 03:02:44;;;;;;;47.38;44.85;;;;;;;;;;5024730;28;20041;-59
2024/04/07 03:05:11;;;;;;;47.72;45.03;;;;;;;;;;5029458;28;20308;-59
2024/04/07 03:07:36;;;;;;;45.83;43.45;;;;;;;;;;5028975;28;20347;-59
2024/04/07 03:10:03;;;;;;;48.28;45.75;;;;;;;;;;5029833;28;20328;-59
2024/04/07 03:12:28;;;;;;;43.75;41.47;;;;;;;;;;5032017;28;20022;-59
2024/04/07 03:14:54;;;;;;;43.20;40.83;;;;;;;;;;5027267;28;20469;-59
2024/04/07 03:17:20;;;;;;;41.30;39.00;;;;;;;;;;5033939;28;20047;-59
2024/04/07 03:19:46;;;;;;;41.92;39.65;;;;;;;;;;5035745;28;20037;-59
2024/04/07 03:22:12;;;;;;;40.60;38.45;;;;;;;;;;5033348;28;20387;-58
2024/04/07 03:24:37;;;;;;;36.88;34.97;;;;;;;;;;5036699;28;20033;-58
2024/04/07 03:27:03;;;;;;;37.60;35.65;;;;;;;;;;5035884;28;20463;-58
2024/04/07 03:29:28;;;;;;;33.88;32.10;;;;;;;;;;5031992;28;20546;-58
2024/04/07 03:31:53;;;;;;;33.28;31.48;;;;;;;;;;5032357;28;20037;-58
2024/04/07 03:34:22;;;;;;;32.47;30.58;;;;;;;;;;5035028;28;20594;-58
2024/04/07 03:36:48;;;;;;;34.08;32.28;;;;;;;;;;5032332;28;20045;-59
2024/04/07 03:39:14;;;;;;;34.60;32.80;;;;;;;;;;5034092;28;20033;-58
2024/04/07 03:41:40;;;;;;;36.88;34.90;;;;;;;;;;5031129;28;20029;-59
2024/04/07 03:44:05;;;;;;;34.92;32.97;;;;;;;;;;5034161;28;20048;-58
2024/04/07 03:46:31;;;;;;;36.28;34.28;;;;;;;;;;5035654;28;20033;-58
2024/04/07 03:48:56;;;;;;;35.72;33.92;;;;;;;;;;5031400;28;20033;-59
2024/04/07 03:51:22;;;;;;;36.70;34.78;;;;;;;;;;5032719;28;20566;-59
2024/04/07 03:53:48;;;;;;;35.90;33.90;;;;;;;;;;5032142;28;20033;-58
2024/04/07 03:56:13;;;;;;;37.88;35.90;;;;;;;;;;5031687;28;20116;-59
2024/04/07 03:58:39;;;;;;;40.88;38.75;;;;;;;;;;5034348;28;20055;-59
2024/04/07 04:01:04;;;;;;;42.33;40.10;;;;;;;;;;5032418;28;20115;-58
2024/04/07 04:03:29;;;;;;;40.58;38.28;;;;;;;;;;5034161;28;20411;-58
2024/04/07 04:05:55;;;;;;;46.75;44.25;;;;;;;;;;5032156;28;20047;-58
2024/04/07 04:08:21;;;;;;;64.40;61.05;;;;;;;;;;5034437;28;21201;-58
2024/04/07 04:10:46;;;;;;;58.63;55.42;;;;;;;;;;5035710;28;20037;-58
2024/04/07 04:13:11;;;;;;;65.90;62.60;;;;;;;;;;5031485;28;20029;-58
2024/04/07 04:15:37;;;;;;;65.13;61.83;;;;;;;;;;5034666;28;20025;-59
2024/04/07 04:18:05;;;;;;;71.70;68.13;;;;;;;;;;5034581;28;20072;-58
2024/04/07 04:20:31;;;;;;;67.40;64.05;;;;;;;;;;5033086;28;20048;-58
2024/04/07 04:22:56;;;;;;;69.65;66.15;;;;;;;;;;5033651;28;20429;-58
2024/04/07 04:25:22;;;;;;;52.28;49.67;;;;;;;;;;5033371;28;20052;-58
2024/04/07 04:27:48;;;;;;;48.22;45.80;;;;;;;;;;5030407;28;20033;-59
2024/04/07 04:30:13;;;;;;;45.30;42.95;;;;;;;;;;5034040;28;20044;-59
2024/04/07 04:32:39;;;;;;;44.97;42.67;;;;;;;;;;5032186;28;20116;-59
2024/04/07 04:35:05;;;;;;;46.25;43.85;;;;;;;;;;5033572;28;20132;-58
2024/04/07 04:37:31;;;;;;;45.78;43.45;;;;;;;;;;5031614;28;20156;-59
2024/04/07 04:39:58;;;;;;;41.60;39.42;;;;;;;;;;5033880;28;20503;-58
2024/04/07 04:42:24;;;;;;;39.22;37.00;;;;;;;;;;5031986;28;20080;-58
2024/04/07 04:44:49;;;;;;;32.63;30.92;;;;;;;;;;5033573;28;20026;-61
2024/04/07 04:47:15;;;;;;;34.33;32.47;;;;;;;;;;5032953;28;20120;-61
2024/04/07 04:49:40;;;;;;;34.45;32.33;;;;;;;;;;5030949;28;20165;-61
2024/04/07 04:52:06;;;;;;;43.38;41.15;;;;;;;;;;5030996;28;20033;-59
2024/04/07 04:54:31;;;;;;;34.53;32.72;;;;;;;;;;5032402;28;20060;-59
2024/04/07 04:56:56;;;;;;;40.10;38.10;;;;;;;;;;5014318;28;20029;-61
2024/04/07 04:59:22;;;;;;;54.97;52.22;;;;;;;;;;5030843;28;20041;-60
2024/04/07 05:01:47;;;;;;;66.05;62.75;;;;;;;;;;5030849;28;20059;-61
2024/04/07 05:04:13;;;;;;;93.07;88.43;;;;;;;;;;5030010;28;20057;-60
2024/04/07 05:06:38;;;;;;;71.00;67.43;;;;;;;;;;5030106;28;20834;-61
2024/04/07 05:09:05;;;;;;;110.60;105.07;;;;;;;;;;5030608;28;20037;-61
2024/04/07 05:11:30;;;;;;;119.30;113.38;;;;;;;;;;5031018;28;20084;-60
2024/04/07 05:13:56;;;;;;;101.70;96.65;;;;;;;;;;5032751;28;20061;-61
2024/04/07 05:16:22;;;;;;;114.40;108.68;;;;;;;;;;5031499;28;20031;-60
2024/04/07 05:18:48;;;;;;;145.63;138.27;;;;;;;;;;5031786;28;20106;-57
2024/04/07 05:21:14;;;;;;;119.72;113.65;;;;;;;;;;5032809;28;20359;-58
2024/04/07 05:23:40;;;;;;;67.05;63.65;;;;;;;;;;5030745;28;20025;-61
2024/04/07 05:26:17;;;;;;;118.82;112.75;;;;;;;;;;5031124;28;20037;-61
2024/04/07 05:28:42;;;;;;;122.20;116.10;;;;;;;;;;5030199;28;20043;-60
2024/04/07 05:31:12;;;;;;;129.57;123.15;;;;;;;;;;5032640;28;20431;-61
2024/04/07 05:33:38;;;;;;;130.75;124.28;;;;;;;;;;5031210;28;20021;-61
2024/04/07 05:36:04;;;;;;;120.75;114.78;;;;;;;;;;5031588;28;20048;-61
2024/04/07 05:38:30;;;;;;;129.60;123.10;;;;;;;;;;5034574;28;20049;-55
2024/04/07 05:40:56;;;;;;;149.05;141.65;;;;;;;;;;5030260;28;20064;-55
2024/04/07 05:43:22;;;;;;;136.65;129.82;;;;;;;;;;5030672;28;20522;-61
2024/04/07 05:45:47;;;;;;;162.68;154.63;;;;;;;;;;5032047;28;20035;-61
2024/04/07 05:48:13;;;;;;;152.57;144.93;;;;;;;;;;5033756;28;20485;-61
2024/04/07 05:50:38;;;;;;;150.52;143.05;;;;;;;;;;5035735;28;20040;-60
2024/04/07 05:53:04;;;;;;;124.50;118.28;;;;;;;;;;5033671;28;20111;-61
2024/04/07 05:55:33;;;;;;;117.72;111.75;;;;;;;;;;5033541;28;20043;-61
2024/04/07 05:57:59;;;;;;;123.50;117.22;;;;;;;;;;5031241;28;20025;-61
2024/04/07 06:00:24;;;;;;;78.38;74.43;;;;;;;;;;5031651;28;20044;-60
2024/04/07 06:02:49;;;;;;;123.78;117.63;;;;;;;;;;5032679;28;20048;-61
2024/04/07 06:05:15;;;;;;;77.47;73.40;;;;;;;;;;5034948;28;20083;-61
2024/04/07 06:07:40;;;;;;;99.03;94.07;;;;;;;;;;5029785;28;20515;-61
2024/04/07 06:10:06;;;;;;;72.75;69.10;;;;;;;;;;5029514;28;20041;-60
2024/04/07 06:12:31;;;;;;;114.28;108.57;;;;;;;;;;5029747;28;20098;-60
2024/04/07 06:14:56;;;;;;;102.60;97.38;;;;;;;;;;5032793;28;20723;-60
2024/04/07 06:17:22;;;;;;;149.82;142.40;;;;;;;;;;5032515;28;20432;-61
2024/04/07 06:19:47;;;;;;;95.40;90.70;;;;;;;;;;5028392;28;20052;-61
2024/04/07 06:22:12;;;;;;;145.00;137.77;;;;;;;;;;5033056;28;20095;-60
2024/04/07 06:24:39;;;;;;;193.80;184.18;;;;;;;;;;5029452;28;20056;-61
2024/04/07 06:27:05;;;;;;;200.32;190.43;;;;;;;;;;5029194;28;20098;-61
2024/04/07 06:29:31;;;;;;;213.30;202.82;;;;;;;;;;5029728;28;20041;-61
2024/04/07 06:31:56;;;;;;;222.32;211.32;;;;;;;;;;5029575;28;20512;-61
2024/04/07 06:34:22;;;;;;;230.57;219.18;;;;;;;;;;5030434;28;20370;-61
2024/04/07 06:36:47;;;;;;;228.13;216.88;;;;;;;;;;5031656;28;20037;-61
2024/04/07 06:39:12;;;;;;;247.27;235.10;;;;;;;;;;5030140;28;20068;-58
2024/04/07 06:41:38;;;;;;;253.65;240.85;;;;;;;;;;5029888;28;20025;-58
2024/04/07 06:44:03;;;;;;;283.00;268.98;;;;;;;;;;5026710;28;20049;-59
2024/04/07 06:46:29;;;;;;;280.65;266.75;;;;;;;;;;5030072;28;20048;-61
2024/04/07 06:48:55;;;;;;;276.00;262.35;;;;;;;;;;5028487;28;20038;-58
2024/04/07 06:51:20;;;;;;;301.05;286.10;;;;;;;;;;5029477;28;20529;-58
2024/04/07 06:53:47;;;;;;;323.35;307.23;;;;;;;;;;5031470;28;20144;-58
2024/04/07 06:56:12;;;;;;;280.30;266.17;;;;;;;;;;5030041;28;20435;-58
2024/04/07 06:58:37;;;;;;;294.98;280.33;;;;;;;;;;5031606;28;20037;-58
2024/04/07 07:01:03;;;;;;;342.45;324.30;;;;;;;;;;5034219;28;20471;-58
2024/04/07 07:03:28;;;;;;;365.63;347.00;;;;;;;;;;5032757;28;20048;-58
2024/04/07 07:05:54;;;;;;;345.38;327.90;;;;;;;;;;5030543;28;20061;-58
2024/04/07 07:08:20;;;;;;;400.48;379.67;;;;;;;;;;5034689;28;20037;-58
2024/04/07 07:11:01;;;;;;;418.88;397.05;;;;;;;;;;5033483;28;20150;-59
2024/04/07 07:13:30;;;;;;;387.92;367.75;;;;;;;;;;5031418;28;20391;-62
2024/04/07 07:15:57;;;;;;;435.90;412.92;;;;;;;;;;5035154;28;20672;-60
2024/04/07 07:18:22;;;;;;;475.27;449.42;;;;;;;;;;5033575;28;20060;-59
2024/04/07 07:20:48;;;;;;;453.30;429.00;;;;;;;;;;5035204;28;20033;-59
2024/04/07 07:23:14;;;;;;;465.05;440.02;;;;;;;;;;5030478;28;20041;-52
2024/04/07 07:25:41;;;;;;;502.58;474.33;;;;;;;;;;5030380;28;20051;-56
2024/04/07 07:28:06;;;;;;;436.27;413.20;;;;;;;;;;5033144;28;20537;-57
2024/04/07 07:30:32;;;;;;;503.58;475.70;;;;;;;;;;5034538;28;20041;-57
2024/04/07 07:32:58;;;;;;;540.58;509.70;;;;;;;;;;5031084;28;20040;-56
2024/04/07 07:35:23;;;;;;;555.20;523.08;;;;;;;;;;5031819;28;20041;-55
2024/04/07 07:37:48;;;;;;;568.28;535.00;;;;;;;;;;5032836;28;20037;-56
2024/04/07 07:40:14;;;;;;;569.67;536.53;;;;;;;;;;5032687;28;20183;-57
2024/04/07 07:42:39;;;;;;;549.17;517.60;;;;;;;;;;5031577;28;20116;-57
2024/04/07 07:45:05;;;;;;;598.28;562.25;;;;;;;;;;5033100;28;20040;-58
2024/04/07 07:47:30;;;;;;;431.73;409.05;;;;;;;;;;5032412;28;20095;-57
2024/04/07 07:49:57;;;;;;;605.55;569.40;;;;;;;;;;5030282;28;20041;-56
2024/04/07 07:52:23;;;;;;;392.63;372.48;;;;;;;;;;5031909;28;20040;-58
2024/04/07 07:54:49;;;;;;;480.13;453.92;;;;;;;;;;5029818;28;20037;-57
2024/04/07 07:57:15;;;;;;;461.63;436.95;;;;;;;;;;5031250;28;20033;-58
2024/04/07 07:59:40;;;;;;;586.75;551.72;;;;;;;;;;5028007;28;20044;-57
2024/04/07 08:02:06;;;;;;;247.70;235.48;;;;;;;;;;5028834;28;20037;-57
2024/04/07 08:04:31;;;;;;;232.55;221.10;;;;;;;;;;5032025;28;20037;-57
2024/04/07 08:06:56;;;;;;;287.52;273.23;;;;;;;;;;5027574;28;20043;-59
2024/04/07 08:09:23;;;;;;;360.30;341.98;;;;;;;;;;5032744;28;20037;-59
2024/04/07 08:11:49;;;;;;;231.27;219.90;;;;;;;;;;5031203;28;20032;-59
2024/04/07 08:14:15;;;;;;;190.07;180.73;;;;;;;;;;5028718;28;20030;-59
2024/04/07 08:16:41;;;;;;;200.88;190.85;;;;;;;;;;5026963;28;20599;-59
2024/04/07 08:19:08;;;;;;;218.70;207.90;;;;;;;;;;5034401;28;20140;-59
2024/04/07 08:21:34;;;;;;;209.15;198.82;;;;;;;;;;5031533;28;20061;-59
2024/04/07 08:23:59;;;;;;;230.15;218.52;;;;;;;;;;5028839;28;20071;-59
2024/04/07 08:26:25;;;;;;;211.15;200.80;;;;;;;;;;5028824;28;20045;-59
2024/04/07 08:28:50;;;;;;;228.48;217.23;;;;;;;;;;5029479;28;20422;-59
2024/04/07 08:31:16;;;;;;;253.93;241.40;;;;;;;;;;5030704;28;20030;-58
2024/04/07 08:33:41;;;;;;;208.57;198.20;;;;;;;;;;5031271;28;20098;-59
2024/04/07 08:36:07;;;;;;;216.63;205.88;;;;;;;;;;5028986;28;20568;-59
2024/04/07 08:38:32;;;;;;;231.88;220.43;;;;;;;;;;5031669;28;20450;-59
2024/04/07 08:40:58;;;;;;;275.02;261.35;;;;;;;;;;5032111;28;20033;-59
2024/04/07 08:43:24;;;;;;;207.30;196.93;;;;;;;;;;5029746;28;20112;-59
2024/04/07 08:45:51;;;;;;;305.35;290.05;;;;;;;;;;5030271;28;20535;-59
2024/04/07 08:48:22;;;;;;;282.15;267.42;;;;;;;;;;5028080;28;20036;-59
2024/04/07 08:50:48;;;;;;;294.17;279.42;;;;;;;;;;5031270;28;20393;-59
2024/04/07 08:53:17;;;;;;;349.25;331.00;;;;;;;;;;5031669;28;20037;-58
2024/04/07 08:55:44;;;;;;;211.98;201.52;;;;;;;;;;5031218;28;20441;-59
2024/04/07 08:58:10;;;;;;;214.73;204.18;;;;;;;;;;5030937;28;20525;-59
2024/04/07 09:00:38;;;;;;;266.77;253.25;;;;;;;;;;5033029;28;20036;-58
2024/04/07 09:03:06;;;;;;;209.80;198.35;;;;;;;;;;5030112;28;20442;-57
2024/04/07 09:05:32;;;;;;;219.40;208.48;;;;;;;;;;5030165;28;20034;-57
2024/04/07 09:07:57;;;;;;;255.70;242.75;;;;;;;;;;5030366;28;21204;-58
2024/04/07 09:10:22;;;;;;;332.00;315.15;;;;;;;;;;5028432;28;20045;-58
2024/04/07 09:12:51;;;;;;;323.48;307.02;;;;;;;;;;5028944;28;20090;-58
2024/04/07 09:15:17;;;;;;;225.98;214.88;;;;;;;;;;5027606;28;20041;-58
2024/04/07 09:17:43;;;;;;;207.43;197.23;;;;;;;;;;5029044;28;20036;-58
2024/04/07 09:20:20;;;;;;;172.88;164.25;;;;;;;;;;5026829;28;20521;-58
2024/04/07 09:22:49;;;;;;;187.90;178.32;;;;;;;;;;5028325;28;20037;-57
2024/04/07 09:25:14;;;;;;;185.00;175.85;;;;;;;;;;5029864;28;20116;-58
2024/04/07 09:27:41;;;;;;;208.70;198.30;;;;;;;;;;5023407;28;20095;-58
2024/04/07 09:30:07;;;;;;;212.48;201.98;;;;;;;;;;5029797;28;20041;-58
2024/04/07 09:32:32;;;;;;;259.55;246.70;;;;;;;;;;5031951;28;20123;-58
2024/04/07 09:34:58;;;;;;;196.02;186.25;;;;;;;;;;5029567;28;20108;-58
2024/04/07 09:37:23;;;;;;;164.85;156.65;;;;;;;;;;5028256;28;20091;-58
2024/04/07 09:39:48;;;;;;;220.93;210.02;;;;;;;;;;5029706;28;20390;-58
2024/04/07 09:42:22;;;;;;;232.07;220.70;;;;;;;;;;5029732;28;20490;-58
2024/04/07 09:44:53;;;;;;;157.20;149.15;;;;;;;;;;5028927;28;20060;-58
2024/04/07 09:47:22;;;;;;;;;;;;;;;;;;5030421;28;20601;-59
2024/04/07 09:49:50;;;;;;;134.45;127.85;;;;;;;;;;5031258;28;19983;-58
2024/04/07 09:52:19;;;;;;;157.52;149.77;;;;;;;;;;5027082;28;20040;-58
2024/04/07 09:54:47;;;;;;;163.03;155.00;;;;;;;;;;5030454;28;20105;-59
2024/04/07 09:57:14;;;;;;;154.38;146.65;;;;;;;;;;5029662;28;20347;-58
2024/04/07 09:59:45;;;;;;;267.55;254.40;;;;;;;;;;5027696;28;20712;-58
2024/04/07 10:02:11;;;;;;;172.20;163.65;;;;;;;;;;5030083;28;20052;-58
2024/04/07 10:04:38;;;;;;;218.35;207.65;;;;;;;;;;5030230;28;20041;-55
2024/04/07 10:07:05;;;;;;;202.60;192.55;;;;;;;;;;5031682;28;20033;-56
2024/04/07 10:09:31;;;;;;;247.32;235.02;;;;;;;;;;5028310;28;20037;-56
2024/04/07 10:11:57;;;;;;;203.68;193.65;;;;;;;;;;5034434;28;20455;-55
2024/04/07 10:14:23;;;;;;;251.43;238.95;;;;;;;;;;5031068;28;20043;-56
2024/04/07 10:16:51;;;;;;;279.58;265.73;;;;;;;;;;5031211;28;20024;-56
2024/04/07 10:19:18;;;;;;;306.17;290.88;;;;;;;;;;5030475;28;20127;-56
2024/04/07 10:21:45;;;;;;;236.68;224.98;;;;;;;;;;5027889;28;20163;-57
2024/04/07 10:24:10;;;;;;;258.60;245.68;;;;;;;;;;5028882;28;20044;-56
2024/04/07 10:26:36;;;;;;;256.23;243.43;;;;;;;;;;5030945;28;20041;-56
2024/04/07 10:29:08;;;;;;;255.75;242.57;;;;;;;;;;5036302;28;20056;-57
2024/04/07 10:31:38;;;;;;;247.95;235.50;;;;;;;;;;5038489;28;20033;-57
2024/04/07 10:34:03;;;;;;;244.98;232.65;;;;;;;;;;5035166;28;20044;-60
2024/04/07 10:36:33;;;;;;;231.18;219.60;;;;;;;;;;5033198;28;20025;-60
2024/04/07 10:38:59;;;;;;;302.65;286.58;;;;;;;;;;5034846;28;20530;-60
2024/04/07 10:41:32;;;;;;;289.20;273.98;;;;;;;;;;5033477;28;20044;-60
2024/04/07 10:43:58;;;;;;;258.60;245.85;;;;;;;;;;5034032;28;20037;-60
2024/04/07 10:46:24;;;;;;;276.15;262.38;;;;;;;;;;5031141;28;20102;-57
2024/04/07 10:48:51;;;;;;;256.17;243.23;;;;;;;;;;5032455;28;20045;-60
2024/04/07 10:51:17;;;;;;;252.55;239.98;;;;;;;;;;5027394;28;20463;-57
2024/04/07 10:53:43;;;;;;;250.02;237.45;;;;;;;;;;5032169;28;20104;-57
2024/04/07 10:56:09;;;;;;;273.60;260.00;;;;;;;;;;5032600;28;20122;-60
2024/04/07 10:58:35;;;;;;;238.27;226.50;;;;;;;;;;5035413;28;20048;-59
2024/04/07 11:01:00;;;;;;;261.85;248.75;;;;;;;;;;5032591;28;20034;-59
2024/04/07 11:03:26;;;;;;;259.20;246.32;;;;;;;;;;5031112;28;20440;-59
2024/04/07 11:05:52;;;;;;;230.15;218.73;;;;;;;;;;5032466;28;20029;-60
2024/04/07 11:08:20;;;;;;;252.15;239.38;;;;;;;;;;5027985;28;20071;-60
2024/04/07 11:10:52;;;;;;;271.25;257.17;;;;;;;;;;5036016;28;20455;-59
2024/04/07 11:13:18;;;;;;;299.05;284.25;;;;;;;;;;5034121;28;20032;-60
2024/04/07 11:15:45;;;;;;;371.02;352.02;;;;;;;;;;5033406;28;20032;-59
2024/04/07 11:18:18;;;;;;;274.70;261.10;;;;;;;;;;5033901;28;20478;-60
2024/04/07 11:20:44;;;;;;;428.50;405.80;;;;;;;;;;5034308;28;20681;-60
2024/04/07 11:23:10;;;;;;;530.30;499.85;;;;;;;;;;5036182;28;20124;-60
2024/04/07 11:25:36;;;;;;;519.25;489.40;;;;;;;;;;5029559;28;20116;-59
2024/04/07 11:28:03;;;;;;;561.22;528.20;;;;;;;;;;5035585;28;20033;-58
2024/04/07 11:30:33;;;;;;;543.38;511.75;;;;;;;;;;5035679;28;20453;-59
2024/04/07 11:33:04;;;;;;;572.83;538.75;;;;;;;;;;5032479;28;20043;-60
2024/04/07 11:35:29;;;;;;;541.42;509.95;;;;;;;;;;5025868;28;20359;-59
2024/04/07 11:37:55;;;;;;;582.85;547.92;;;;;;;;;;5035280;28;20037;-60
2024/04/07 11:40:20;;;;;;;515.58;486.35;;;;;;;;;;5034483;28;20043;-59
2024/04/07 11:42:45;;;;;;;574.28;540.20;;;;;;;;;;5034612;28;20537;-59
2024/04/07 11:45:11;;;;;;;560.38;527.10;;;;;;;;;;5031578;28;20053;-59
2024/04/07 11:47:36;;;;;;;573.58;539.35;;;;;;;;;;5035549;28;20034;-59
2024/04/07 11:50:02;;;;;;;546.22;514.38;;;;;;;;;;5033712;28;20087;-59
2024/04/07 11:52:27;;;;;;;566.10;532.70;;;;;;;;;;5031866;28;21814;-59
2024/04/07 11:54:52;;;;;;;576.65;542.35;;;;;;;;;;5032715;28;20099;-59
2024/04/07 11:57:18;;;;;;;575.08;540.92;;;;;;;;;;5035482;28;20052;-59
2024/04/07 11:59:43;;;;;;;574.25;540.05;;;;;;;;;;5036229;28;20041;-59
2024/04/07 12:02:09;;;;;;;573.55;539.38;;;;;;;;;;5033567;28;20040;-60
2024/04/07 12:04:34;;;;;;;548.35;516.50;;;;;;;;;;5034015;28;20052;-59
2024/04/07 12:06:59;;;;;;;537.38;506.60;;;;;;;;;;5032679;28;20060;-59
2024/04/07 12:09:25;;;;;;;475.77;449.65;;;;;;;;;;5033316;28;20136;-60
2024/04/07 12:11:50;;;;;;;448.95;424.27;;;;;;;;;;5033170;28;20029;-59
2024/04/07 12:14:15;;;;;;;428.88;405.83;;;;;;;;;;5031914;28;20037;-56
2024/04/07 12:16:42;;;;;;;521.22;491.27;;;;;;;;;;5035340;28;20029;-60
2024/04/07 12:19:07;;;;;;;502.98;474.40;;;;;;;;;;5036811;28;20112;-58
2024/04/07 12:21:33;;;;;;;481.52;454.80;;;;;;;;;;5035034;28;20203;-59
2024/04/07 12:24:00;;;;;;;449.08;424.40;;;;;;;;;;5033425;28;20029;-59
2024/04/07 12:26:25;;;;;;;483.58;457.00;;;;;;;;;;5035171;28;20186;-60
2024/04/07 12:28:51;;;;;;;421.08;398.42;;;;;;;;;;5032461;28;20033;-59
2024/04/07 12:31:16;;;;;;;417.58;395.13;;;;;;;;;;5032091;28;20029;-59
2024/04/07 12:33:45;;;;;;;526.60;496.45;;;;;;;;;;5034333;28;20068;-59
2024/04/07 12:36:10;;;;;;;453.35;428.73;;;;;;;;;;5032807;28;20134;-59
2024/04/07 12:38:35;;;;;;;411.98;390.30;;;;;;;;;;5034859;28;20029;-60
2024/04/07 12:41:01;;;;;;;403.05;381.45;;;;;;;;;;5037979;28;20123;-59
2024/04/07 12:43:26;;;;;;;414.25;391.77;;;;;;;;;;5032934;28;20463;-57
2024/04/07 12:45:51;;;;;;;359.27;340.45;;;;;;;;;;5034109;28;20451;-59
2024/04/07 12:48:20;;;;;;;428.85;405.70;;;;;;;;;;5031889;28;20064;-59
2024/04/07 12:50:45;;;;;;;428.83;405.52;;;;;;;;;;5033953;28;20037;-59
2024/04/07 12:53:11;;;;;;;378.38;357.75;;;;;;;;;;5033053;28;20882;-59
2024/04/07 12:55:38;;;;;;;377.30;356.90;;;;;;;;;;5032708;28;20051;-59
2024/04/07 12:58:04;;;;;;;362.35;343.17;;;;;;;;;;5030991;28;20352;-59
2024/04/07 13:00:30;;;;;;;325.15;308.15;;;;;;;;;;5031659;28;20057;-59
2024/04/07 13:02:55;;;;;;;384.95;364.55;;;;;;;;;;5032313;28;20072;-59
2024/04/07 13:05:21;;;;;;;407.77;385.70;;;;;;;;;;5031918;28;20057;-59
2024/04/07 13:07:46;;;;;;;441.63;417.40;;;;;;;;;;5032400;28;21016;-59
2024/04/07 13:10:13;;;;;;;422.40;399.70;;;;;;;;;;5032650;28;20071;-58
2024/04/07 13:12:39;;;;;;;332.92;315.50;;;;;;;;;;5032849;28;20463;-59
2024/04/07 13:15:05;;;;;;;374.88;354.77;;;;;;;;;;5032847;28;20124;-59
2024/04/07 13:17:30;;;;;;;297.95;282.58;;;;;;;;;;5032916;28;20040;-59
2024/04/07 13:19:56;;;;;;;323.85;306.52;;;;;;;;;;5030983;28;20037;-58
2024/04/07 13:22:21;;;;;;;300.40;284.67;;;;;;;;;;5031017;28;20124;-59
2024/04/07 13:24:48;;;;;;;362.30;342.90;;;;;;;;;;5032549;28;20045;-59
2024/04/07 13:27:13;;;;;;;299.63;283.92;;;;;;;;;;5032869;28;20040;-59
2024/04/07 13:29:38;;;;;;;231.77;219.85;;;;;;;;;;5030638;28;20041;-58
2024/04/07 13:32:04;;;;;;;205.13;194.60;;;;;;;;;;5032713;28;20123;-59
2024/04/07 13:34:29;;;;;;;198.52;188.23;;;;;;;;;;5033237;28;20117;-59
2024/04/07 13:36:55;;;;;;;269.00;255.25;;;;;;;;;;5033312;28;20476;-59
2024/04/07 13:39:20;;;;;;;249.13;236.25;;;;;;;;;;5034766;28;20776;-58
2024/04/07 13:41:46;;;;;;;289.88;274.85;;;;;;;;;;5032708;28;20416;-60
2024/04/07 13:44:12;;;;;;;356.92;338.08;;;;;;;;;;5034522;28;20490;-59
2024/04/07 13:46:37;;;;;;;303.10;287.55;;;;;;;;;;5030820;28;20044;-59
2024/04/07 13:49:02;;;;;;;307.63;291.83;;;;;;;;;;5031868;28;20446;-59
2024/04/07 13:51:28;;;;;;;424.27;401.42;;;;;;;;;;5025331;28;20037;-58
2024/04/07 13:53:53;;;;;;;343.90;326.05;;;;;;;;;;5032360;28;20033;-59
2024/04/07 13:56:19;;;;;;;334.80;317.45;;;;;;;;;;5032143;28;20068;-59